Time;durP1;ratioP1;P1;durP2;ratioP2;P2;SDS_P1;SDS_P2;PMS_P1;PMS_P2;Temp;Humidity;BMP_temperature;BMP_pressure;BME280_temperature;BME280_humidity;BME280_pressure;Samples;Min_cycle;Max_cycle;Signal;HPM_P1;HPM_P2
2023/05/21 00:01:33;;;;;;;3.22;1.60;;;14.30;99.60;;;;;;5060739;28;20501;-76
2023/05/21 00:03:59;;;;;;;3.90;1.33;;;14.30;99.70;;;;;;5064455;28;20032;-76
2023/05/21 00:06:25;;;;;;;3.53;1.77;;;14.20;99.60;;;;;;5061732;28;20505;-76
2023/05/21 00:08:50;;;;;;;3.75;1.73;;;14.30;99.70;;;;;;5061107;28;20058;-76
2023/05/21 00:11:16;;;;;;;2.28;1.38;;;14.30;99.70;;;;;;5062018;28;20036;-76
2023/05/21 00:13:41;;;;;;;3.95;1.50;;;14.30;99.80;;;;;;5062993;28;20147;-76
2023/05/21 00:16:09;;;;;;;2.95;1.60;;;14.30;99.80;;;;;;5061187;28;20545;-76
2023/05/21 00:18:38;;;;;;;3.97;1.40;;;14.30;99.90;;;;;;5078578;28;20466;-76
2023/05/21 00:21:04;;;;;;;3.72;1.50;;;14.30;99.90;;;;;;5058256;28;20520;-76
2023/05/21 00:23:31;;;;;;;4.85;1.75;;;14.30;99.90;;;;;;5060699;28;20036;-76
2023/05/21 00:25:58;;;;;;;3.95;1.70;;;14.20;99.90;;;;;;5061631;28;20048;-75
2023/05/21 00:28:23;;;;;;;4.70;1.73;;;14.20;99.90;;;;;;5061154;28;20053;-76
2023/05/21 00:30:50;;;;;;;2.92;1.52;;;14.30;99.90;;;;;;5061300;28;20272;-76
2023/05/21 00:33:15;;;;;;;3.65;1.35;;;14.20;99.90;;;;;;5060311;28;20386;-76
2023/05/21 00:35:41;;;;;;;3.08;1.30;;;14.20;99.90;;;;;;5062523;28;20043;-76
2023/05/21 00:38:07;;;;;;;3.30;1.48;;;14.20;99.90;;;;;;5061632;28;20449;-76
2023/05/21 00:40:34;;;;;;;5.18;1.80;;;14.20;99.90;;;;;;5060200;28;20505;-76
2023/05/21 00:43:00;;;;;;;5.22;1.60;;;14.20;99.90;;;;;;5058314;28;20573;-76
2023/05/21 00:45:26;;;;;;;2.50;1.40;;;14.20;99.90;;;;;;5093817;28;20123;-76
2023/05/21 00:47:55;;;;;;;3.33;1.42;;;14.20;99.90;;;;;;5060694;28;20199;-76
2023/05/21 00:50:21;;;;;;;5.25;1.70;;;14.20;99.90;;;;;;5061861;28;20044;-76
2023/05/21 00:52:47;;;;;;;5.28;1.92;;;14.20;99.90;;;;;;5062218;28;20054;-76
2023/05/21 00:55:13;;;;;;;3.90;1.55;;;14.20;99.90;;;;;;5057813;28;20058;-76
2023/05/21 00:57:40;;;;;;;3.83;1.70;;;14.20;99.90;;;;;;5062372;28;20036;-76
2023/05/21 01:00:07;;;;;;;3.35;1.33;;;14.20;99.90;;;;;;5060710;28;20040;-77
2023/05/21 01:02:35;;;;;;;4.07;1.65;;;14.10;99.90;;;;;;5058870;28;20056;-76
2023/05/21 01:05:05;;;;;;;5.00;1.60;;;14.10;99.90;;;;;;5075625;28;20209;-77
2023/05/21 01:07:33;;;;;;;2.88;1.63;;;14.10;99.90;;;;;;5060603;28;20089;-76
2023/05/21 01:10:04;;;;;;;4.40;1.60;;;14.10;99.90;;;;;;5058051;28;20043;-76
2023/05/21 01:12:31;;;;;;;5.55;1.63;;;14.10;99.90;;;;;;5093818;28;20051;-76
2023/05/21 01:14:59;;;;;;;3.28;1.55;;;14.10;99.90;;;;;;5060398;28;20048;-76
2023/05/21 01:17:27;;;;;;;4.22;1.63;;;14.10;99.90;;;;;;5059490;28;20087;-77
2023/05/21 01:19:53;;;;;;;2.88;1.40;;;14.10;99.90;;;;;;5063333;28;20036;-76
2023/05/21 01:22:20;;;;;;;4.32;1.70;;;14.10;99.90;;;;;;5066469;28;20498;-76
2023/05/21 01:24:49;;;;;;;3.08;1.50;;;14.10;99.90;;;;;;5063939;28;20032;-76
2023/05/21 01:27:16;;;;;;;3.55;1.63;;;14.10;99.90;;;;;;5063883;28;20064;-76
2023/05/21 01:29:42;;;;;;;4.95;1.92;;;14.00;99.90;;;;;;5068011;28;20047;-76
2023/05/21 01:32:30;;;;;;;4.35;1.70;;;14.00;99.90;;;;;;5043491;28;20041;-76
2023/05/21 01:35:09;;;;;;;3.67;1.80;;;14.00;99.90;;;;;;5058333;28;20075;-76
2023/05/21 01:37:47;;;;;;;3.47;1.52;;;14.00;99.90;;;;;;5060432;28;20070;-76
2023/05/21 01:40:19;;;;;;;3.75;1.35;;;14.00;99.90;;;;;;5074804;28;20045;-76
2023/05/21 01:42:46;;;;;;;3.80;1.55;;;14.00;99.90;;;;;;5063298;28;20043;-76
2023/05/21 01:45:16;;;;;;;4.40;1.73;;;14.00;99.90;;;;;;5060554;28;20037;-76
2023/05/21 01:47:46;;;;;;;4.75;1.70;;;13.90;99.90;;;;;;5091520;28;20036;-76
2023/05/21 01:50:13;;;;;;;4.03;1.77;;;13.90;99.90;;;;;;5057016;28;20044;-76
2023/05/21 01:52:46;;;;;;;3.67;1.88;;;14.00;99.90;;;;;;5060459;28;20037;-76
2023/05/21 01:55:12;;;;;;;4.05;1.65;;;14.00;99.90;;;;;;5042412;28;20098;-76
2023/05/21 01:57:38;;;;;;;3.33;1.50;;;13.90;99.90;;;;;;5062316;28;20734;-76
2023/05/21 02:00:04;;;;;;;4.45;1.90;;;13.90;99.90;;;;;;5060332;28;20049;-76
2023/05/21 02:02:30;;;;;;;4.57;2.00;;;13.90;99.90;;;;;;5041119;28;20128;-76
2023/05/21 02:04:55;;;;;;;4.30;1.92;;;13.90;99.90;;;;;;5060078;28;20123;-76
2023/05/21 02:07:21;;;;;;;2.80;1.58;;;13.90;99.90;;;;;;5059140;28;20814;-76
2023/05/21 02:09:47;;;;;;;4.47;1.65;;;13.90;99.90;;;;;;5057048;28;21752;-76
2023/05/21 02:12:12;;;;;;;3.95;1.67;;;13.90;99.90;;;;;;5058661;28;20512;-76
2023/05/21 02:14:38;;;;;;;5.28;1.88;;;13.90;99.90;;;;;;5058384;28;20044;-76
2023/05/21 02:17:04;;;;;;;5.45;1.70;;;13.90;99.90;;;;;;5060162;28;20418;-76
2023/05/21 02:19:29;;;;;;;5.70;2.20;;;13.90;99.90;;;;;;5062200;28;20379;-76
2023/05/21 02:21:55;;;;;;;5.40;1.85;;;13.90;99.90;;;;;;5067420;28;20402;-76
2023/05/21 02:24:21;;;;;;;3.97;1.85;;;13.90;99.90;;;;;;5067481;28;20028;-76
2023/05/21 02:26:48;;;;;;;4.13;2.00;;;13.90;99.90;;;;;;5064184;28;20041;-76
2023/05/21 02:29:14;;;;;;;4.70;2.00;;;13.90;99.90;;;;;;5064315;28;20068;-76
2023/05/21 02:31:40;;;;;;;4.07;1.98;;;13.90;99.90;;;;;;5089267;28;20109;-76
2023/05/21 02:34:06;;;;;;;5.35;2.15;;;13.90;99.90;;;;;;5060382;28;20036;-76
2023/05/21 02:36:32;;;;;;;5.95;1.90;;;13.80;99.90;;;;;;5062614;28;20040;-76
2023/05/21 02:38:57;;;;;;;4.18;2.00;;;13.80;99.90;;;;;;5053683;28;20033;-76
2023/05/21 02:41:23;;;;;;;4.50;1.90;;;13.80;99.90;;;;;;5061232;28;20032;-76
2023/05/21 02:43:49;;;;;;;6.45;2.00;;;13.80;99.90;;;;;;5038958;28;20563;-76
2023/05/21 02:46:14;;;;;;;3.80;1.92;;;13.80;99.90;;;;;;5058494;28;20033;-76
2023/05/21 02:48:40;;;;;;;6.10;2.05;;;13.80;99.90;;;;;;5057568;28;20497;-76
2023/05/21 02:51:06;;;;;;;3.88;1.77;;;13.80;99.90;;;;;;5042155;28;20126;-76
2023/05/21 02:53:31;;;;;;;4.00;2.10;;;13.70;99.90;;;;;;5056631;28;20037;-76
2023/05/21 02:55:57;;;;;;;4.07;1.90;;;13.80;99.90;;;;;;5056587;28;20040;-76
2023/05/21 02:58:24;;;;;;;5.07;2.00;;;13.80;99.90;;;;;;5042278;28;20117;-76
2023/05/21 03:00:50;;;;;;;7.32;2.15;;;13.80;99.90;;;;;;5040996;28;20068;-76
2023/05/21 03:03:16;;;;;;;6.82;2.47;;;13.80;99.90;;;;;;5037222;28;20036;-76
2023/05/21 03:05:41;;;;;;;5.40;1.83;;;13.70;99.90;;;;;;5058201;28;20383;-76
2023/05/21 03:08:07;;;;;;;5.25;2.30;;;13.80;99.90;;;;;;5055228;28;20045;-76
2023/05/21 03:10:33;;;;;;;7.15;2.25;;;13.70;99.90;;;;;;5061553;28;20048;-76
2023/05/21 03:12:58;;;;;;;4.88;2.10;;;13.70;99.90;;;;;;5059351;28;20121;-76
2023/05/21 03:15:24;;;;;;;4.13;1.98;;;13.70;99.90;;;;;;5059585;28;20032;-76
2023/05/21 03:17:52;;;;;;;4.30;2.00;;;13.70;99.90;;;;;;5056934;28;20048;-76
2023/05/21 03:20:18;;;;;;;4.70;2.10;;;13.70;99.90;;;;;;5060656;28;20036;-76
2023/05/21 03:22:44;;;;;;;4.47;2.25;;;13.70;99.90;;;;;;5060451;28;20651;-76
2023/05/21 03:25:11;;;;;;;5.85;2.10;;;13.70;99.90;;;;;;5059113;28;20102;-76
2023/05/21 03:27:39;;;;;;;4.70;2.05;;;13.70;99.90;;;;;;5059821;28;20052;-76
2023/05/21 03:30:08;;;;;;;4.88;1.98;;;13.70;99.90;;;;;;5062750;28;20486;-76
2023/05/21 03:32:36;;;;;;;4.30;2.22;;;13.70;99.90;;;;;;5060917;28;20443;-76
2023/05/21 03:35:02;;;;;;;5.82;1.83;;;13.70;99.90;;;;;;5061709;28;20328;-76
2023/05/21 03:37:28;;;;;;;4.43;1.90;;;13.70;99.90;;;;;;5045600;28;20032;-76
2023/05/21 03:39:53;;;;;;;4.78;1.80;;;13.70;99.90;;;;;;5058845;28;20091;-76
2023/05/21 03:42:19;;;;;;;5.65;1.95;;;13.60;99.90;;;;;;5060545;28;20043;-76
2023/05/21 03:44:45;;;;;;;4.05;1.77;;;13.60;99.90;;;;;;5063484;28;20044;-76
2023/05/21 03:47:11;;;;;;;4.55;2.20;;;13.60;99.90;;;;;;5060980;28;20037;-76
2023/05/21 03:49:36;;;;;;;6.07;2.28;;;13.60;99.90;;;;;;5067945;28;20032;-76
2023/05/21 03:52:02;;;;;;;7.93;1.85;;;13.60;99.90;;;;;;5050654;28;20498;-76
2023/05/21 03:54:27;;;;;;;4.85;2.00;;;13.60;99.90;;;;;;5066210;28;20067;-76
2023/05/21 03:56:53;;;;;;;5.53;1.85;;;13.70;99.90;;;;;;5064324;28;20040;-76
2023/05/21 03:59:18;;;;;;;4.40;2.22;;;13.60;99.90;;;;;;5066878;28;20098;-76
2023/05/21 04:01:44;;;;;;;3.83;2.20;;;13.60;99.90;;;;;;5063326;28;20043;-76
2023/05/21 04:04:10;;;;;;;6.10;1.92;;;13.60;99.90;;;;;;5063656;28;20143;-76
2023/05/21 04:06:35;;;;;;;4.10;2.00;;;13.60;99.90;;;;;;5058531;28;20451;-76
2023/05/21 04:09:01;;;;;;;4.88;1.90;;;13.60;99.90;;;;;;5060995;28;20036;-76
2023/05/21 04:11:27;;;;;;;4.65;1.77;;;13.60;99.90;;;;;;5061611;28;20040;-76
2023/05/21 04:13:52;;;;;;;5.25;1.95;;;13.60;99.90;;;;;;5062003;28;20131;-76
2023/05/21 04:16:18;;;;;;;6.68;2.20;;;13.60;99.90;;;;;;5061577;28;20498;-76
2023/05/21 04:18:45;;;;;;;6.35;1.95;;;13.60;99.90;;;;;;5062567;28;20124;-76
2023/05/21 04:21:10;;;;;;;4.30;1.92;;;13.60;99.90;;;;;;5061293;28;20135;-76
2023/05/21 04:23:36;;;;;;;4.32;2.25;;;13.60;99.90;;;;;;5095029;28;20056;-76
2023/05/21 04:26:02;;;;;;;6.40;1.60;;;13.50;99.90;;;;;;5062172;28;20029;-76
2023/05/21 04:28:27;;;;;;;3.95;1.90;;;13.60;99.90;;;;;;5061568;28;20422;-76
2023/05/21 04:30:55;;;;;;;5.28;1.63;;;13.50;99.90;;;;;;5059565;28;20036;-76
2023/05/21 04:33:21;;;;;;;4.78;1.90;;;13.50;99.90;;;;;;5061950;28;20105;-76
2023/05/21 04:35:50;;;;;;;3.60;1.80;;;13.60;99.90;;;;;;5062325;28;20132;-76
2023/05/21 04:38:18;;;;;;;4.07;1.60;;;13.60;99.90;;;;;;5063073;28;20051;-76
2023/05/21 04:40:45;;;;;;;6.53;2.17;;;13.60;99.90;;;;;;5060991;28;20515;-76
2023/05/21 04:43:11;;;;;;;4.90;1.95;;;13.60;99.90;;;;;;5061666;28;20063;-76
2023/05/21 04:45:37;;;;;;;6.55;2.15;;;13.60;99.90;;;;;;5058468;28;20028;-76
2023/05/21 04:48:02;;;;;;;5.80;2.10;;;13.50;99.90;;;;;;5062825;28;20029;-76
2023/05/21 04:50:29;;;;;;;5.05;1.98;;;13.60;99.90;;;;;;5062010;28;20059;-76
2023/05/21 04:52:55;;;;;;;4.60;2.10;;;13.60;99.90;;;;;;5063667;28;20123;-76
2023/05/21 04:55:21;;;;;;;4.63;1.77;;;13.60;99.90;;;;;;5060582;28;20142;-76
2023/05/21 04:57:47;;;;;;;3.83;2.05;;;13.60;99.90;;;;;;5058266;28;20073;-76
2023/05/21 05:00:13;;;;;;;3.70;1.90;;;13.60;99.90;;;;;;5061717;28;20072;-76
2023/05/21 05:02:38;;;;;;;5.60;1.80;;;13.60;99.90;;;;;;5061408;28;20039;-76
2023/05/21 05:05:04;;;;;;;7.20;2.00;;;13.60;99.90;;;;;;5044720;28;20530;-76
2023/05/21 05:07:30;;;;;;;6.20;2.25;;;13.70;99.90;;;;;;5058727;28;20049;-76
2023/05/21 05:09:56;;;;;;;6.15;2.03;;;13.70;99.90;;;;;;5061640;28;20037;-76
2023/05/21 05:12:21;;;;;;;4.40;1.92;;;13.70;99.90;;;;;;5062085;28;20425;-76
2023/05/21 05:14:47;;;;;;;5.57;1.70;;;13.70;99.90;;;;;;5059663;28;20064;-76
2023/05/21 05:17:15;;;;;;;3.40;1.52;;;13.70;99.90;;;;;;5060759;28;20158;-76
2023/05/21 05:19:41;;;;;;;7.50;2.08;;;13.70;99.90;;;;;;5061145;28;20535;-76
2023/05/21 05:22:06;;;;;;;4.45;1.85;;;13.70;99.90;;;;;;5068799;28;20028;-76
2023/05/21 05:24:32;;;;;;;4.35;2.08;;;13.80;99.90;;;;;;5066152;28;20028;-76
2023/05/21 05:26:58;;;;;;;3.53;1.77;;;13.70;99.90;;;;;;5065780;28;20064;-76
2023/05/21 05:29:23;;;;;;;3.83;1.88;;;13.80;99.90;;;;;;5064892;28;20055;-76
2023/05/21 05:31:49;;;;;;;5.40;1.98;;;13.80;99.90;;;;;;5059615;28;20036;-76
2023/05/21 05:34:15;;;;;;;6.22;2.75;;;13.80;99.90;;;;;;5059025;28;20033;-76
2023/05/21 05:36:40;;;;;;;4.63;1.80;;;13.80;99.90;;;;;;5058756;28;20040;-76
2023/05/21 05:39:06;;;;;;;4.72;1.92;;;13.80;99.90;;;;;;5054408;28;20035;-76
2023/05/21 05:41:32;;;;;;;4.65;1.50;;;13.80;99.90;;;;;;5057197;28;20079;-76
2023/05/21 05:43:57;;;;;;;5.25;1.85;;;13.90;99.90;;;;;;5044527;28;20256;-76
2023/05/21 05:46:23;;;;;;;4.05;1.52;;;13.90;99.90;;;;;;5060557;28;20032;-76
2023/05/21 05:48:48;;;;;;;6.40;1.85;;;13.90;99.90;;;;;;5062269;28;20036;-76
2023/05/21 05:51:15;;;;;;;5.97;1.85;;;13.90;99.90;;;;;;5041976;28;20028;-77
2023/05/21 05:53:41;;;;;;;4.93;1.70;;;13.90;99.90;;;;;;5061568;28;20290;-76
2023/05/21 05:56:07;;;;;;;3.15;1.50;;;13.90;99.90;;;;;;5058093;28;20117;-76
2023/05/21 05:58:32;;;;;;;7.05;2.20;;;14.00;99.90;;;;;;5061385;28;20437;-76
2023/05/21 06:00:58;;;;;;;3.90;1.83;;;14.00;99.90;;;;;;5057720;28;20041;-76
2023/05/21 06:03:25;;;;;;;4.38;2.05;;;14.00;99.90;;;;;;5062020;28;20038;-76
2023/05/21 06:05:51;;;;;;;5.03;1.50;;;14.00;99.90;;;;;;5068047;28;20274;-76
2023/05/21 06:08:16;;;;;;;2.88;1.60;;;14.00;99.90;;;;;;5055789;28;20167;-76
2023/05/21 06:10:42;;;;;;;4.47;1.88;;;14.00;99.90;;;;;;5089881;28;20044;-76
2023/05/21 06:13:07;;;;;;;4.28;1.80;;;14.00;99.90;;;;;;5054108;28;20068;-77
2023/05/21 06:15:33;;;;;;;3.42;1.67;;;14.00;99.90;;;;;;5057826;28;20032;-76
2023/05/21 06:17:58;;;;;;;5.05;1.60;;;14.10;99.90;;;;;;5039254;28;20510;-75
2023/05/21 06:20:24;;;;;;;4.32;1.58;;;14.00;99.90;;;;;;5055732;28;20040;-76
2023/05/21 06:22:50;;;;;;;5.15;1.30;;;14.00;99.90;;;;;;5054684;28;20036;-76
2023/05/21 06:25:15;;;;;;;4.35;1.83;;;14.10;99.90;;;;;;5051387;28;20094;-76
2023/05/21 06:27:41;;;;;;;3.92;1.70;;;14.10;99.90;;;;;;5081419;28;20063;-76
2023/05/21 06:30:07;;;;;;;3.50;1.60;;;14.10;99.90;;;;;;5067286;28;20036;-76
2023/05/21 06:32:33;;;;;;;6.38;2.05;;;14.10;99.90;;;;;;5048372;28;20043;-77
2023/05/21 06:34:58;;;;;;;3.80;1.80;;;14.10;99.90;;;;;;5058209;28;20044;-76
2023/05/21 06:37:24;;;;;;;5.63;1.80;;;14.20;99.90;;;;;;5059133;28;20040;-76
2023/05/21 06:39:49;;;;;;;4.72;1.48;;;14.20;99.90;;;;;;5058615;28;20094;-76
2023/05/21 06:42:15;;;;;;;4.95;1.80;;;14.20;99.90;;;;;;5059783;28;20048;-76
2023/05/21 06:44:41;;;;;;;4.00;1.73;;;14.30;99.90;;;;;;5061975;28;20081;-76
2023/05/21 06:47:06;;;;;;;4.05;1.70;;;14.40;99.90;;;;;;5061391;28;20044;-76
2023/05/21 06:49:32;;;;;;;5.57;2.00;;;14.40;99.90;;;;;;5060850;28;20029;-76
2023/05/21 06:51:58;;;;;;;4.68;1.40;;;14.50;99.90;;;;;;5057876;28;20557;-76
2023/05/21 06:54:23;;;;;;;2.88;1.35;;;14.50;99.90;;;;;;5058220;28;20036;-76
2023/05/21 06:56:49;;;;;;;3.58;1.70;;;14.60;99.90;;;;;;5060052;28;20363;-76
2023/05/21 06:59:15;;;;;;;3.97;1.80;;;14.60;99.90;;;;;;5056653;28;20064;-77
2023/05/21 07:01:41;;;;;;;3.40;1.63;;;14.60;99.90;;;;;;5092588;28;20032;-76
2023/05/21 07:04:07;;;;;;;5.03;1.60;;;14.60;99.90;;;;;;5063621;28;20028;-76
2023/05/21 07:06:34;;;;;;;5.15;1.80;;;14.60;99.90;;;;;;5068657;28;20115;-76
2023/05/21 07:08:59;;;;;;;6.78;1.90;;;14.60;99.90;;;;;;5097074;28;20058;-76
2023/05/21 07:11:27;;;;;;;6.15;1.70;;;14.70;99.90;;;;;;5067063;28;20052;-76
2023/05/21 07:13:54;;;;;;;4.32;1.63;;;14.60;99.90;;;;;;5064437;28;20062;-76
2023/05/21 07:16:20;;;;;;;9.20;3.40;;;14.70;99.90;;;;;;5063563;28;20044;-76
2023/05/21 07:18:45;;;;;;;7.20;2.60;;;14.60;99.90;;;;;;5059642;28;20448;-76
2023/05/21 07:21:11;;;;;;;8.55;2.95;;;14.60;99.90;;;;;;5062339;28;20115;-77
2023/05/21 07:23:36;;;;;;;7.53;3.05;;;14.70;99.90;;;;;;5057531;28;20035;-76
2023/05/21 07:26:02;;;;;;;5.93;2.65;;;14.70;99.90;;;;;;5062251;28;20046;-75
2023/05/21 07:28:28;;;;;;;6.63;2.67;;;14.70;99.90;;;;;;5065113;28;20041;-76
2023/05/21 07:30:53;;;;;;;5.45;2.90;;;14.70;99.90;;;;;;5061193;28;20458;-76
2023/05/21 07:33:21;;;;;;;6.35;2.58;;;14.70;99.90;;;;;;5059285;28;20041;-76
2023/05/21 07:35:47;;;;;;;5.32;2.30;;;14.80;99.90;;;;;;5064042;28;20052;-75
2023/05/21 07:38:13;;;;;;;5.55;2.10;;;14.80;99.90;;;;;;5063321;28;20555;-76
2023/05/21 07:40:38;;;;;;;4.90;1.52;;;14.90;99.90;;;;;;5058680;28;20425;-76
2023/05/21 07:43:04;;;;;;;4.07;1.77;;;14.80;99.90;;;;;;5062263;28;20037;-75
2023/05/21 07:45:29;;;;;;;5.40;1.92;;;14.90;99.90;;;;;;5060780;28;20543;-76
2023/05/21 07:47:55;;;;;;;4.57;1.88;;;14.90;99.90;;;;;;5042561;28;20036;-75
2023/05/21 07:50:21;;;;;;;3.17;1.58;;;14.90;99.90;;;;;;5060746;28;20486;-74
2023/05/21 07:52:46;;;;;;;4.10;1.70;;;15.00;99.90;;;;;;5061296;28;20598;-74
2023/05/21 07:55:12;;;;;;;5.20;1.90;;;15.00;99.90;;;;;;5058250;28;20051;-76
2023/05/21 07:57:37;;;;;;;4.75;1.30;;;15.00;99.90;;;;;;5060257;28;20131;-76
2023/05/21 08:00:07;;;;;;;5.53;1.88;;;15.10;99.90;;;;;;5058758;28;20557;-77
2023/05/21 08:02:33;;;;;;;3.65;1.50;;;15.10;99.90;;;;;;5055304;28;20486;-75
2023/05/21 08:05:00;;;;;;;5.70;1.70;;;15.10;99.90;;;;;;5054437;28;20051;-76
2023/05/21 08:07:26;;;;;;;4.43;1.85;;;15.10;99.90;;;;;;5067748;28;20470;-75
2023/05/21 08:09:53;;;;;;;6.53;1.98;;;15.20;99.90;;;;;;5068580;28;20044;-75
2023/05/21 08:12:19;;;;;;;6.22;1.77;;;15.20;99.90;;;;;;5067528;28;20551;-75
2023/05/21 08:14:44;;;;;;;4.00;1.75;;;15.30;99.90;;;;;;5069530;28;20036;-75
2023/05/21 08:17:10;;;;;;;7.30;1.70;;;15.30;99.90;;;;;;5069597;28;20452;-75
2023/05/21 08:19:36;;;;;;;3.60;2.03;;;15.40;99.90;;;;;;5068759;28;20072;-75
2023/05/21 08:22:02;;;;;;;4.95;1.73;;;15.30;99.90;;;;;;5069592;28;20046;-75
2023/05/21 08:24:28;;;;;;;5.75;1.70;;;15.40;99.90;;;;;;5070645;28;20078;-75
2023/05/21 08:26:53;;;;;;;4.95;1.90;;;15.40;99.90;;;;;;5068248;28;20099;-75
2023/05/21 08:29:19;;;;;;;3.65;1.50;;;15.40;99.90;;;;;;5068977;28;20037;-75
2023/05/21 08:31:45;;;;;;;3.67;2.00;;;15.40;99.90;;;;;;5068796;28;20040;-75
2023/05/21 08:34:10;;;;;;;2.88;1.42;;;15.50;99.90;;;;;;5068824;28;20422;-75
2023/05/21 08:36:37;;;;;;;4.43;1.50;;;15.50;99.90;;;;;;5065024;28;20036;-76
2023/05/21 08:39:03;;;;;;;3.95;1.90;;;15.50;99.90;;;;;;5049289;28;20090;-75
2023/05/21 08:41:32;;;;;;;4.75;2.30;;;15.60;99.90;;;;;;5068592;28;20481;-75
2023/05/21 08:44:00;;;;;;;5.45;1.88;;;15.60;99.90;;;;;;5068235;28;20064;-75
2023/05/21 08:46:31;;;;;;;4.90;1.60;;;15.60;99.90;;;;;;5068455;28;20094;-75
2023/05/21 08:48:59;;;;;;;3.90;2.00;;;15.70;99.90;;;;;;5050946;28;20044;-75
2023/05/21 08:51:25;;;;;;;4.18;1.80;;;15.70;99.90;;;;;;5065149;28;20037;-75
2023/05/21 08:53:51;;;;;;;4.00;1.60;;;15.70;99.90;;;;;;5065994;28;20045;-75
2023/05/21 08:56:17;;;;;;;4.90;1.60;;;15.80;99.90;;;;;;5064672;28;20040;-76
2023/05/21 08:58:45;;;;;;;4.35;2.08;;;15.80;99.90;;;;;;5066437;28;20032;-75
2023/05/21 09:01:11;;;;;;;2.95;1.40;;;15.80;99.90;;;;;;5051757;28;20056;-75
2023/05/21 09:03:39;;;;;;;3.20;1.67;;;15.80;99.90;;;;;;5063560;28;20033;-75
2023/05/21 09:06:09;;;;;;;5.15;2.03;;;15.80;99.90;;;;;;5051981;28;20036;-75
2023/05/21 09:08:42;;;;;;;3.83;1.48;;;15.90;99.90;;;;;;5069001;28;20504;-76
2023/05/21 09:11:07;;;;;;;4.03;1.83;;;15.90;99.90;;;;;;5050241;28;20040;-76
2023/05/21 09:13:33;;;;;;;3.65;1.65;;;15.90;99.90;;;;;;5067477;28;20121;-75
2023/05/21 09:15:59;;;;;;;4.38;2.08;;;16.00;99.90;;;;;;5068380;28;20033;-76
2023/05/21 09:18:26;;;;;;;3.85;2.13;;;16.00;99.90;;;;;;5051292;28;20490;-75
2023/05/21 09:20:52;;;;;;;3.92;2.20;;;16.10;99.90;;;;;;5068002;28;20067;-75
2023/05/21 09:23:19;;;;;;;4.25;2.20;;;16.10;99.90;;;;;;5068151;28;20127;-75
2023/05/21 09:25:46;;;;;;;3.97;1.88;;;16.20;99.90;;;;;;5066645;28;20036;-76
2023/05/21 09:28:14;;;;;;;3.90;1.77;;;16.30;99.90;;;;;;5066569;28;20044;-75
2023/05/21 09:30:44;;;;;;;5.53;1.63;;;16.30;99.90;;;;;;5068380;28;20060;-75
2023/05/21 09:33:10;;;;;;;6.35;2.05;;;16.30;99.90;;;;;;5068225;28;20441;-76
2023/05/21 09:35:36;;;;;;;4.00;1.90;;;16.40;99.90;;;;;;5069696;28;20086;-75
2023/05/21 09:38:08;;;;;;;5.20;2.03;;;16.50;99.90;;;;;;5067370;28;20037;-75
2023/05/21 09:40:34;;;;;;;4.05;2.30;;;16.60;99.90;;;;;;5061131;28;20041;-75
2023/05/21 09:43:00;;;;;;;3.25;2.00;;;16.60;99.90;;;;;;5067223;28;20105;-75
2023/05/21 09:45:27;;;;;;;3.90;2.10;;;16.70;99.90;;;;;;5067796;28;20111;-75
2023/05/21 09:47:54;;;;;;;3.50;1.92;;;16.70;99.90;;;;;;5050770;28;20037;-75
2023/05/21 09:50:26;;;;;;;4.63;1.90;;;16.80;99.90;;;;;;5067837;28;20036;-76
2023/05/21 09:52:52;;;;;;;6.65;1.95;;;16.80;99.90;;;;;;5064518;28;20186;-75
2023/05/21 09:55:22;;;;;;;5.10;2.00;;;16.90;99.90;;;;;;5054454;28;20517;-76
2023/05/21 09:57:49;;;;;;;3.90;1.95;;;16.90;99.90;;;;;;5061370;28;20051;-75
2023/05/21 10:00:23;;;;;;;3.78;2.00;;;17.00;99.90;;;;;;5049189;28;20111;-75
2023/05/21 10:02:59;;;;;;;5.33;2.33;;;17.00;99.90;;;;;;5066361;28;20036;-75
2023/05/21 10:05:27;;;;;;;4.88;2.33;;;17.00;99.90;;;;;;5067283;28;20309;-75
2023/05/21 10:08:02;;;;;;;3.90;2.35;;;17.10;99.90;;;;;;5050666;28;20047;-76
2023/05/21 10:10:29;;;;;;;6.93;2.65;;;17.20;99.90;;;;;;5063524;28;20040;-76
2023/05/21 10:13:09;;;;;;;7.32;2.53;;;17.20;99.90;;;;;;5067700;28;20081;-76
2023/05/21 10:15:39;;;;;;;4.53;2.20;;;17.30;99.90;;;;;;5069414;28;20086;-76
2023/05/21 10:18:07;;;;;;;4.13;2.08;;;17.40;99.90;;;;;;5062901;28;20040;-76
2023/05/21 10:20:34;;;;;;;7.95;2.47;;;17.30;99.90;;;;;;5062251;28;20650;-76
2023/05/21 10:23:01;;;;;;;5.78;3.00;;;17.40;99.90;;;;;;5075466;28;20036;-75
2023/05/21 10:25:30;;;;;;;6.85;2.42;;;17.50;99.90;;;;;;5061206;28;20402;-76
2023/05/21 10:27:56;;;;;;;5.53;2.72;;;17.50;99.90;;;;;;5058278;28;20053;-75
2023/05/21 10:30:23;;;;;;;4.80;2.33;;;17.50;99.90;;;;;;5057723;28;20394;-77
2023/05/21 10:32:49;;;;;;;4.97;2.15;;;17.50;99.90;;;;;;5063619;28;20035;-76
2023/05/21 10:35:16;;;;;;;5.55;2.60;;;17.50;99.90;;;;;;5062963;28;20087;-76
2023/05/21 10:37:45;;;;;;;7.10;3.30;;;17.50;99.90;;;;;;5063021;28;20041;-76
2023/05/21 10:40:12;;;;;;;5.60;3.00;;;17.60;99.90;;;;;;5046316;28;20113;-76
2023/05/21 10:42:59;;;;;;;5.38;2.53;;;17.70;99.90;;;;;;5063982;28;20037;-76
2023/05/21 10:45:36;;;;;;;7.93;2.85;;;17.70;99.90;;;;;;5067989;28;20036;-76
2023/05/21 10:48:11;;;;;;;6.40;3.13;;;17.80;99.90;;;;;;5068082;28;20032;-76
2023/05/21 10:50:55;;;;;;;8.70;3.20;;;17.80;99.90;;;;;;5067011;28;20032;-76
2023/05/21 10:53:23;;;;;;;6.30;3.45;;;17.90;99.90;;;;;;5066829;28;20052;-75
2023/05/21 10:55:48;;;;;;;8.57;2.78;;;17.90;99.90;;;;;;5043626;28;20040;-76
2023/05/21 10:58:25;;;;;;;5.13;2.97;;;17.90;99.90;;;;;;5059085;28;20513;-76
2023/05/21 11:00:54;;;;;;;7.30;3.80;;;18.00;99.90;;;;;;5055132;28;20505;-76
2023/05/21 11:03:20;;;;;;;7.63;3.25;;;18.10;99.90;;;;;;5061415;28;20036;-75
2023/05/21 11:05:55;;;;;;;8.90;3.55;;;18.10;99.90;;;;;;5058773;28;20049;-75
2023/05/21 11:08:26;;;;;;;9.07;4.18;;;18.10;99.90;;;;;;5088671;28;20112;-76
2023/05/21 11:10:57;;;;;;;8.95;4.63;;;18.20;99.90;;;;;;5059973;28;20045;-76
2023/05/21 11:13:26;;;;;;;8.50;3.90;;;18.20;99.90;;;;;;5065698;28;20028;-76
2023/05/21 11:15:58;;;;;;;10.77;4.47;;;18.20;99.90;;;;;;5050369;28;20494;-76
2023/05/21 11:18:32;;;;;;;10.75;4.18;;;18.30;99.90;;;;;;5065669;28;20194;-76
2023/05/21 11:21:12;;;;;;;6.97;3.97;;;18.30;99.90;;;;;;5064636;28;20640;-76
2023/05/21 11:23:55;;;;;;;9.60;4.88;;;18.30;99.90;;;;;;5067676;28;20029;-76
2023/05/21 11:26:23;;;;;;;10.85;5.55;;;18.40;99.90;;;;;;5065317;28;20450;-76
2023/05/21 11:29:03;;;;;;;8.85;4.70;;;18.40;99.90;;;;;;5065660;28;20044;-76
2023/05/21 11:31:39;;;;;;;8.77;4.90;;;18.40;99.90;;;;;;5066701;28;20097;-76
2023/05/21 11:34:12;;;;;;;10.15;4.75;;;18.40;99.90;;;;;;5065729;28;20062;-76
2023/05/21 11:36:43;;;;;;;8.88;5.07;;;18.50;99.90;;;;;;5063622;28;20033;-76
2023/05/21 11:39:12;;;;;;;9.50;5.18;;;18.50;99.90;;;;;;5049687;28;20262;-76
2023/05/21 11:41:56;;;;;;;11.15;5.15;;;18.40;99.90;;;;;;5066123;28;20063;-76
2023/05/21 11:44:45;;;;;;;10.75;5.05;;;18.40;99.90;;;;;;5066302;28;20037;-76
2023/05/21 11:47:16;;;;;;;10.27;5.07;;;18.40;99.90;;;;;;5070162;28;20093;-76
2023/05/21 11:49:43;;;;;;;12.50;5.70;;;18.50;99.90;;;;;;5067725;28;20557;-76
2023/05/21 11:52:09;;;;;;;10.90;5.47;;;18.50;99.90;;;;;;5066992;28;20497;-76
2023/05/21 11:54:44;;;;;;;12.05;5.30;;;18.50;99.90;;;;;;5069172;28;20036;-76
2023/05/21 11:57:13;;;;;;;13.15;5.57;;;18.50;99.90;;;;;;5069013;28;20052;-76
2023/05/21 11:59:39;;;;;;;8.90;4.38;;;18.50;99.90;;;;;;5064780;28;20045;-76
2023/05/21 12:02:06;;;;;;;9.52;4.78;;;18.60;99.90;;;;;;5069407;28;20116;-76
2023/05/21 12:04:36;;;;;;;11.77;5.03;;;18.70;99.90;;;;;;5068327;28;20048;-76
2023/05/21 12:07:09;;;;;;;8.60;4.10;;;18.70;99.90;;;;;;5069381;28;20040;-76
2023/05/21 12:09:46;;;;;;;11.32;5.50;;;18.70;99.90;;;;;;5086768;28;20079;-76
2023/05/21 12:12:15;;;;;;;12.35;6.40;;;18.80;99.90;;;;;;5070422;28;20036;-76
2023/05/21 12:14:46;;;;;;;11.35;5.47;;;18.80;99.90;;;;;;5070861;28;20040;-76
2023/05/21 12:17:15;;;;;;;11.25;5.38;;;18.90;99.90;;;;;;5050430;28;20036;-76
2023/05/21 12:19:41;;;;;;;11.80;5.50;;;18.90;99.90;;;;;;5068803;28;20089;-75
2023/05/21 12:22:07;;;;;;;12.88;6.45;;;18.90;99.90;;;;;;5070531;28;20040;-76
2023/05/21 12:24:34;;;;;;;12.85;6.13;;;18.90;99.90;;;;;;5068421;28;20036;-76
2023/05/21 12:27:01;;;;;;;12.25;6.55;;;18.90;99.90;;;;;;5102511;28;20561;-75
2023/05/21 12:29:28;;;;;;;15.15;6.57;;;18.90;99.90;;;;;;5052205;28;20738;-76
2023/05/21 12:31:57;;;;;;;15.25;6.80;;;18.80;99.90;;;;;;5068623;28;20036;-76
2023/05/21 12:34:44;;;;;;;13.40;5.85;;;18.80;99.90;;;;;;5068301;28;20090;-76
2023/05/21 12:37:30;;;;;;;12.10;5.97;;;18.90;99.80;;;;;;5070281;28;20407;-76
2023/05/21 12:39:58;;;;;;;;;;;18.90;99.90;;;;;;5068627;28;20091;-76
2023/05/21 12:42:34;;;;;;;11.50;5.50;;;18.90;99.90;;;;;;5064012;28;19920;-75
2023/05/21 12:45:05;;;;;;;13.00;5.47;;;19.00;99.90;;;;;;5053270;28;20398;-76
2023/05/21 12:47:32;;;;;;;12.05;5.82;;;19.00;99.80;;;;;;5070385;28;20051;-76